Time;durP1;ratioP1;P1;durP2;ratioP2;P2;SDS_P1;SDS_P2;PMS_P1;PMS_P2;Temp;Humidity;BMP_temperature;BMP_pressure;BME280_temperature;BME280_humidity;BME280_pressure;Samples;Min_cycle;Max_cycle;Signal;HPM_P1;HPM_P2
2023/08/30 00:00:14;;;;;;;11.80;9.27;;;14.70;99.90;;;;;;5079416;28;20173;-86
2023/08/30 00:02:39;;;;;;;11.45;9.60;;;14.80;99.90;;;;;;5079534;28;20166;-85
2023/08/30 00:05:05;;;;;;;12.75;9.63;;;14.80;99.90;;;;;;5079014;28;20259;-85
2023/08/30 00:07:31;;;;;;;9.65;8.65;;;14.80;99.90;;;;;;5078974;28;20178;-85
2023/08/30 00:09:58;;;;;;;11.57;8.77;;;14.80;99.90;;;;;;5079835;28;20169;-86
2023/08/30 00:12:25;;;;;;;14.45;9.50;;;14.80;99.90;;;;;;5079752;28;20174;-86
2023/08/30 00:14:51;;;;;;;15.68;9.13;;;14.80;99.90;;;;;;5080537;28;20733;-86
2023/08/30 00:17:17;;;;;;;11.57;9.30;;;14.80;99.90;;;;;;5079079;28;20185;-86
2023/08/30 00:19:43;;;;;;;10.57;8.63;;;14.80;99.90;;;;;;5079444;28;20192;-86
2023/08/30 00:22:08;;;;;;;11.18;8.60;;;14.80;99.90;;;;;;5080767;28;20316;-85
2023/08/30 00:24:35;;;;;;;12.77;8.95;;;14.90;99.90;;;;;;5082692;28;20666;-85
2023/08/30 00:27:02;;;;;;;10.23;8.55;;;14.80;99.90;;;;;;5083736;28;20173;-85
2023/08/30 00:29:28;;;;;;;11.75;8.95;;;14.70;99.90;;;;;;5082788;28;20177;-85
2023/08/30 00:31:54;;;;;;;11.90;9.75;;;14.70;99.90;;;;;;5082831;28;20170;-85
2023/08/30 00:34:20;;;;;;;10.52;8.23;;;14.60;99.90;;;;;;5082174;28;20235;-85
2023/08/30 00:36:46;;;;;;;10.88;8.65;;;14.60;99.90;;;;;;5081178;28;20658;-85
2023/08/30 00:39:13;;;;;;;11.15;8.57;;;14.70;99.90;;;;;;5079830;28;20327;-84
2023/08/30 00:41:39;;;;;;;13.18;9.95;;;14.60;99.90;;;;;;5080339;28;20272;-85
2023/08/30 00:44:04;;;;;;;11.27;9.13;;;14.60;99.90;;;;;;5076933;28;20711;-85
2023/08/30 00:46:31;;;;;;;15.50;9.55;;;14.50;99.90;;;;;;5076564;28;20280;-86
2023/08/30 00:48:58;;;;;;;9.68;8.65;;;14.50;99.90;;;;;;5077396;28;20247;-86
2023/08/30 00:51:24;;;;;;;13.30;9.55;;;14.50;99.90;;;;;;5079271;28;20189;-86
2023/08/30 00:53:50;;;;;;;11.38;9.13;;;14.50;99.90;;;;;;5078054;28;20178;-87
2023/08/30 00:56:18;;;;;;;10.90;9.80;;;14.40;99.90;;;;;;5076032;28;20201;-87
2023/08/30 00:58:44;;;;;;;11.43;9.18;;;14.40;99.90;;;;;;5078571;28;20212;-87
2023/08/30 01:01:10;;;;;;;10.75;8.68;;;14.40;99.90;;;;;;5081373;28;20236;-86
2023/08/30 01:03:37;;;;;;;11.13;9.57;;;14.50;99.90;;;;;;5080966;28;20347;-86
2023/08/30 01:06:03;;;;;;;10.98;8.77;;;14.40;99.90;;;;;;5081622;28;20194;-86
2023/08/30 01:08:29;;;;;;;14.05;8.57;;;14.40;99.90;;;;;;5080367;28;20180;-86
2023/08/30 01:11:18;;;;;;;10.00;8.45;;;14.40;99.90;;;;;;5081061;28;20673;-86
2023/08/30 01:13:58;;;;;;;9.43;8.30;;;14.40;99.90;;;;;;5082696;28;20169;-86
2023/08/30 01:16:25;;;;;;;11.65;8.23;;;14.40;99.90;;;;;;5082169;28;20193;-86
2023/08/30 01:18:56;;;;;;;9.27;8.30;;;14.30;99.90;;;;;;5080616;28;20174;-86
2023/08/30 01:21:44;;;;;;;11.38;8.52;;;14.30;99.90;;;;;;5079928;28;20174;-86
2023/08/30 01:24:23;;;;;;;10.40;8.90;;;14.20;99.90;;;;;;5079098;28;20197;-86
2023/08/30 01:27:08;;;;;;;11.10;9.90;;;14.10;99.90;;;;;;5079020;28;20202;-86
2023/08/30 01:29:34;;;;;;;11.90;9.68;;;14.00;99.90;;;;;;5080567;28;20571;-87
2023/08/30 01:32:02;;;;;;;12.73;9.30;;;14.00;99.90;;;;;;5079021;28;20178;-87
2023/08/30 01:34:28;;;;;;;10.93;9.02;;;13.90;99.90;;;;;;5080039;28;20178;-86
2023/08/30 01:36:55;;;;;;;9.48;8.32;;;13.90;99.90;;;;;;5078195;28;20194;-87
2023/08/30 01:39:23;;;;;;;11.15;9.80;;;13.80;99.90;;;;;;5077658;28;20189;-87
2023/08/30 01:41:52;;;;;;;12.52;8.52;;;13.70;99.90;;;;;;5077980;28;20213;-87
2023/08/30 01:44:18;;;;;;;9.85;8.45;;;13.80;99.90;;;;;;5079623;28;20343;-87
2023/08/30 01:46:46;;;;;;;9.45;8.27;;;13.80;99.90;;;;;;5078478;28;20221;-87
2023/08/30 01:49:12;;;;;;;14.68;8.98;;;13.70;99.90;;;;;;5078700;28;20177;-86
2023/08/30 01:51:39;;;;;;;9.55;8.23;;;13.70;99.90;;;;;;5077975;28;20731;-86
2023/08/30 01:54:06;;;;;;;8.70;7.25;;;13.60;99.90;;;;;;5078466;28;20269;-86
2023/08/30 01:56:32;;;;;;;11.40;7.97;;;13.60;99.90;;;;;;5078386;28;20289;-87
2023/08/30 01:58:58;;;;;;;12.18;8.73;;;13.60;99.90;;;;;;5078412;28;20235;-87
2023/08/30 02:01:24;;;;;;;8.82;7.90;;;13.50;99.90;;;;;;5078566;28;20182;-87
2023/08/30 02:03:50;;;;;;;10.95;8.07;;;13.50;99.90;;;;;;5079767;28;20568;-87
2023/08/30 02:06:24;;;;;;;8.80;7.88;;;13.40;99.90;;;;;;5078564;28;20201;-86
2023/08/30 02:09:03;;;;;;;9.25;8.00;;;13.40;99.90;;;;;;5078889;28;20198;-87
2023/08/30 02:11:34;;;;;;;9.45;7.53;;;13.40;99.90;;;;;;5077478;28;20166;-87
2023/08/30 02:14:04;;;;;;;8.50;7.57;;;13.30;99.90;;;;;;5078875;28;20170;-86
2023/08/30 02:16:31;;;;;;;11.88;8.00;;;13.30;99.90;;;;;;5078454;28;20546;-86
2023/08/30 02:18:57;;;;;;;10.32;7.90;;;13.20;99.90;;;;;;5079133;28;20198;-86
2023/08/30 02:21:23;;;;;;;11.70;8.52;;;13.10;99.90;;;;;;5080908;28;20241;-86
2023/08/30 02:23:52;;;;;;;9.50;7.75;;;13.00;99.90;;;;;;5079587;28;20670;-86
2023/08/30 02:26:19;;;;;;;10.45;8.45;;;13.00;99.90;;;;;;5080074;28;20208;-87
2023/08/30 02:28:45;;;;;;;9.32;7.68;;;13.00;99.90;;;;;;5079496;28;20173;-87
2023/08/30 02:31:11;;;;;;;10.70;8.43;;;12.90;99.90;;;;;;5079905;28;20256;-87
2023/08/30 02:33:37;;;;;;;11.07;8.65;;;13.00;99.90;;;;;;5084248;28;20209;-87
2023/08/30 02:36:03;;;;;;;11.48;8.43;;;13.00;99.90;;;;;;5080542;28;20197;-87
2023/08/30 02:38:29;;;;;;;11.68;8.48;;;12.90;99.90;;;;;;5079239;28;20268;-86
2023/08/30 02:40:55;;;;;;;11.13;9.05;;;13.00;99.90;;;;;;5078999;28;20210;-86
2023/08/30 02:43:21;;;;;;;8.70;7.85;;;12.90;99.90;;;;;;5078559;28;20228;-88
2023/08/30 02:45:47;;;;;;;8.45;7.50;;;12.90;99.90;;;;;;5079199;28;20197;-84
2023/08/30 02:48:14;;;;;;;9.13;7.75;;;12.90;99.90;;;;;;5080302;28;20197;-84
2023/08/30 02:50:40;;;;;;;10.30;8.15;;;12.90;99.90;;;;;;5081224;28;20205;-84
2023/08/30 02:53:08;;;;;;;11.20;8.25;;;12.90;99.90;;;;;;5081442;28;20190;-84
2023/08/30 02:55:37;;;;;;;11.20;8.95;;;12.90;99.90;;;;;;5082015;28;20193;-84
2023/08/30 02:58:03;;;;;;;13.15;8.55;;;12.80;99.90;;;;;;5082126;28;20315;-84
2023/08/30 03:00:28;;;;;;;8.40;7.60;;;12.70;99.90;;;;;;5084059;28;20169;-84
2023/08/30 03:02:54;;;;;;;9.32;7.65;;;12.80;99.90;;;;;;5082304;28;20184;-86
2023/08/30 03:05:20;;;;;;;8.32;7.53;;;12.80;99.90;;;;;;5082455;28;20212;-85
2023/08/30 03:07:46;;;;;;;10.38;8.27;;;12.80;99.90;;;;;;5084152;28;20176;-86
2023/08/30 03:10:12;;;;;;;9.65;8.52;;;12.80;99.90;;;;;;5083249;28;20584;-86
2023/08/30 03:12:38;;;;;;;10.98;8.48;;;12.90;99.90;;;;;;5083337;28;20589;-86
2023/08/30 03:15:04;;;;;;;11.18;8.93;;;12.80;99.90;;;;;;5082586;28;20198;-86
2023/08/30 03:17:30;;;;;;;16.98;9.88;;;12.90;99.90;;;;;;5082135;28;20180;-86
2023/08/30 03:19:56;;;;;;;11.68;10.23;;;12.80;99.90;;;;;;5082068;28;20209;-86
2023/08/30 03:22:22;;;;;;;13.23;10.48;;;12.70;99.90;;;;;;5081363;28;20177;-86
2023/08/30 03:24:49;;;;;;;11.07;9.98;;;12.80;99.90;;;;;;5081864;28;20255;-86
2023/08/30 03:27:16;;;;;;;12.00;10.43;;;12.70;99.90;;;;;;5082983;28;20241;-86
2023/08/30 03:29:41;;;;;;;12.45;10.32;;;12.70;99.90;;;;;;5079726;28;20169;-86
2023/08/30 03:32:07;;;;;;;11.32;9.52;;;12.70;99.90;;;;;;5078358;28;20181;-86
2023/08/30 03:34:33;;;;;;;11.95;10.63;;;12.70;99.90;;;;;;5078226;28;20267;-87
2023/08/30 03:36:59;;;;;;;11.85;9.95;;;12.70;99.90;;;;;;5078869;28;20181;-86
2023/08/30 03:39:24;;;;;;;10.32;9.15;;;12.60;99.90;;;;;;5078554;28;20188;-86
2023/08/30 03:41:50;;;;;;;10.32;9.02;;;12.60;99.90;;;;;;5077875;28;20185;-86
2023/08/30 03:44:16;;;;;;;9.77;7.90;;;12.60;99.90;;;;;;5079627;28;20247;-85
2023/08/30 03:46:42;;;;;;;7.90;7.10;;;12.60;99.90;;;;;;5080428;28;20186;-85
2023/08/30 03:49:08;;;;;;;10.07;7.82;;;12.50;99.90;;;;;;5079605;28;20182;-85
2023/08/30 03:51:34;;;;;;;8.57;7.40;;;12.60;99.90;;;;;;5079320;28;20730;-85
2023/08/30 03:54:00;;;;;;;8.95;8.05;;;12.60;99.90;;;;;;5079361;28;20181;-86
2023/08/30 03:56:26;;;;;;;12.27;8.32;;;12.50;99.90;;;;;;5082498;28;20292;-85
2023/08/30 03:58:51;;;;;;;11.32;8.45;;;12.50;99.90;;;;;;5082032;28;20209;-86
2023/08/30 04:01:17;;;;;;;10.60;8.80;;;12.40;99.90;;;;;;5080188;28;20192;-86
2023/08/30 04:03:43;;;;;;;11.20;8.50;;;12.40;99.90;;;;;;5078791;28;20206;-86
2023/08/30 04:06:08;;;;;;;9.98;8.40;;;12.40;99.90;;;;;;5078127;28;20225;-85
2023/08/30 04:08:34;;;;;;;9.48;8.50;;;12.50;99.90;;;;;;5079737;28;20595;-85
2023/08/30 04:11:00;;;;;;;8.20;7.30;;;12.40;99.90;;;;;;5075561;28;20665;-86
2023/08/30 04:13:25;;;;;;;10.85;7.68;;;12.40;99.90;;;;;;5075711;28;20696;-86
2023/08/30 04:15:52;;;;;;;8.18;7.05;;;12.40;99.90;;;;;;5075605;28;20196;-85
2023/08/30 04:18:17;;;;;;;8.13;7.25;;;12.40;99.90;;;;;;5076118;28;20177;-85
2023/08/30 04:20:47;;;;;;;8.20;7.32;;;12.40;99.90;;;;;;5077541;28;20173;-85
2023/08/30 04:23:13;;;;;;;8.10;6.70;;;12.30;99.90;;;;;;5076286;28;20173;-85
2023/08/30 04:25:39;;;;;;;8.27;7.32;;;12.40;99.90;;;;;;5075658;28;20287;-87
2023/08/30 04:28:05;;;;;;;8.43;7.05;;;12.30;99.90;;;;;;5074853;28;20228;-87
2023/08/30 04:30:31;;;;;;;7.88;6.88;;;12.40;99.90;;;;;;5075046;28;20642;-86
2023/08/30 04:32:56;;;;;;;9.73;7.80;;;12.30;99.90;;;;;;5074618;28;20204;-86
2023/08/30 04:35:22;;;;;;;8.05;7.07;;;12.30;99.90;;;;;;5077790;28;20198;-87
2023/08/30 04:37:48;;;;;;;8.23;7.20;;;12.30;99.90;;;;;;5078861;28;20181;-87
2023/08/30 04:40:14;;;;;;;8.63;7.72;;;12.30;99.90;;;;;;5078418;28;20226;-87
2023/08/30 04:42:40;;;;;;;11.30;8.35;;;12.20;99.90;;;;;;5078492;28;20663;-87
2023/08/30 04:45:07;;;;;;;12.13;8.77;;;12.10;99.90;;;;;;5078467;28;20243;-86
2023/08/30 04:47:33;;;;;;;10.48;7.88;;;12.20;99.90;;;;;;5078352;28;20185;-86
2023/08/30 04:49:59;;;;;;;11.27;8.80;;;12.20;99.90;;;;;;5078759;28;20259;-86
2023/08/30 04:52:25;;;;;;;11.32;9.43;;;12.10;99.90;;;;;;5078245;28;20251;-86
2023/08/30 04:54:51;;;;;;;17.85;10.30;;;12.10;99.90;;;;;;5078354;28;20185;-85
2023/08/30 04:57:17;;;;;;;13.57;11.63;;;12.10;99.90;;;;;;5078618;28;20185;-86
2023/08/30 04:59:44;;;;;;;16.20;11.93;;;12.00;99.90;;;;;;5079977;28;20235;-86
2023/08/30 05:02:10;;;;;;;13.35;10.75;;;12.00;99.90;;;;;;5080622;28;20182;-86
2023/08/30 05:04:36;;;;;;;13.15;10.85;;;11.90;99.90;;;;;;5081981;28;20198;-86
2023/08/30 05:07:02;;;;;;;14.75;11.77;;;11.90;99.90;;;;;;5080942;28;20174;-86
2023/08/30 05:09:29;;;;;;;15.20;11.98;;;11.90;99.90;;;;;;5080992;28;20634;-86
2023/08/30 05:11:55;;;;;;;17.90;12.65;;;11.90;99.90;;;;;;5081198;28;20178;-86
2023/08/30 05:14:21;;;;;;;15.02;11.73;;;11.80;99.90;;;;;;5082584;28;20658;-85
2023/08/30 05:16:47;;;;;;;16.13;12.40;;;11.80;99.90;;;;;;5079280;28;20208;-86
2023/08/30 05:19:12;;;;;;;12.27;10.80;;;11.80;99.90;;;;;;5079111;28;20268;-86
2023/08/30 05:21:38;;;;;;;11.85;10.43;;;11.90;99.90;;;;;;5079558;28;20227;-86
2023/08/30 05:24:07;;;;;;;11.40;9.75;;;11.90;99.90;;;;;;5081450;28;20205;-86
2023/08/30 05:26:33;;;;;;;10.80;9.10;;;11.90;99.90;;;;;;5080281;28;20220;-86
2023/08/30 05:28:59;;;;;;;11.30;9.60;;;11.90;99.90;;;;;;5078134;28;20170;-86
2023/08/30 05:31:24;;;;;;;14.55;9.95;;;11.90;99.90;;;;;;5081392;28;20195;-87
2023/08/30 05:33:50;;;;;;;11.05;9.68;;;11.90;99.90;;;;;;5083072;28;20169;-86
2023/08/30 05:36:17;;;;;;;11.30;9.48;;;11.80;99.90;;;;;;5081857;28;20198;-86
2023/08/30 05:38:43;;;;;;;11.90;10.25;;;11.90;99.90;;;;;;5081529;28;20196;-87
2023/08/30 05:41:09;;;;;;;13.50;9.88;;;12.00;99.90;;;;;;5076610;28;20201;-87
2023/08/30 05:43:35;;;;;;;12.27;10.60;;;12.00;99.90;;;;;;5078942;28;20213;-87
2023/08/30 05:46:03;;;;;;;10.48;8.50;;;12.00;99.90;;;;;;5074750;28;20242;-86
2023/08/30 05:48:31;;;;;;;10.70;8.82;;;12.00;99.90;;;;;;5076684;28;20169;-86
2023/08/30 05:50:57;;;;;;;10.52;9.43;;;12.00;99.90;;;;;;5075628;28;20170;-86
2023/08/30 05:53:24;;;;;;;14.48;8.80;;;12.00;99.90;;;;;;5078890;28;20253;-87
2023/08/30 05:55:49;;;;;;;9.65;8.65;;;12.00;99.90;;;;;;5081853;28;20674;-87
2023/08/30 05:58:17;;;;;;;9.90;8.70;;;12.10;99.90;;;;;;5084604;28;20181;-86
2023/08/30 06:00:43;;;;;;;10.15;7.93;;;12.20;99.90;;;;;;5086077;28;20169;-86
2023/08/30 06:03:10;;;;;;;9.48;8.48;;;12.20;99.90;;;;;;5081387;28;20173;-86
2023/08/30 06:05:36;;;;;;;10.02;8.93;;;12.20;99.90;;;;;;5080202;28;20193;-86
2023/08/30 06:08:02;;;;;;;9.95;8.90;;;12.20;99.90;;;;;;5077309;28;20189;-86
2023/08/30 06:10:28;;;;;;;9.93;8.93;;;12.20;99.90;;;;;;5079154;28;20178;-87
2023/08/30 06:12:55;;;;;;;12.38;10.40;;;12.30;99.90;;;;;;5077565;28;20184;-87
2023/08/30 06:15:21;;;;;;;11.32;9.55;;;12.40;99.90;;;;;;5061954;28;20631;-87
2023/08/30 06:17:47;;;;;;;11.27;10.07;;;12.40;99.90;;;;;;5079676;28;20181;-87
2023/08/30 06:20:13;;;;;;;16.65;12.57;;;12.50;99.90;;;;;;5079525;28;20638;-87
2023/08/30 06:22:39;;;;;;;15.40;13.23;;;12.50;99.90;;;;;;5078711;28;20193;-87
2023/08/30 06:25:06;;;;;;;16.67;13.00;;;12.50;99.90;;;;;;5078361;28;20682;-86
2023/08/30 06:27:32;;;;;;;20.33;14.60;;;12.50;99.90;;;;;;5078875;28;20193;-85
2023/08/30 06:29:58;;;;;;;15.95;13.27;;;12.60;99.90;;;;;;5076197;28;20170;-84
2023/08/30 06:32:24;;;;;;;19.33;14.43;;;12.70;99.90;;;;;;5075599;28;20204;-84
2023/08/30 06:34:50;;;;;;;18.45;15.10;;;12.70;99.90;;;;;;5076012;28;20230;-86
2023/08/30 06:37:15;;;;;;;18.02;14.98;;;12.80;99.90;;;;;;5074951;28;20721;-86
2023/08/30 06:39:41;;;;;;;16.13;12.55;;;12.80;99.90;;;;;;5075053;28;20184;-86
2023/08/30 06:42:07;;;;;;;16.88;14.75;;;12.90;99.90;;;;;;5075062;28;20597;-86
2023/08/30 06:44:33;;;;;;;21.55;15.95;;;12.90;99.90;;;;;;5074850;28;20236;-86
2023/08/30 06:46:59;;;;;;;18.00;15.00;;;13.00;99.90;;;;;;5074600;28;20243;-87
2023/08/30 06:49:26;;;;;;;22.00;16.55;;;13.10;99.90;;;;;;5075512;28;20174;-86
2023/08/30 06:51:52;;;;;;;20.38;14.30;;;13.20;99.90;;;;;;5075152;28;20246;-86
2023/08/30 06:54:18;;;;;;;19.55;13.90;;;13.20;99.90;;;;;;5074991;28;20289;-86
2023/08/30 06:57:00;;;;;;;16.88;13.57;;;13.30;99.90;;;;;;5074017;28;20713;-86
2023/08/30 06:59:26;;;;;;;21.45;14.43;;;13.40;99.90;;;;;;5074935;28;20174;-86
2023/08/30 07:01:53;;;;;;;16.05;12.82;;;13.50;99.90;;;;;;5075583;28;20185;-86
2023/08/30 07:04:19;;;;;;;24.15;17.27;;;13.60;99.90;;;;;;5081467;28;20598;-86
2023/08/30 07:06:46;;;;;;;25.70;18.80;;;13.60;99.90;;;;;;5079724;28;20693;-87
2023/08/30 07:09:12;;;;;;;25.75;18.67;;;13.80;99.90;;;;;;5080457;28;20169;-88
2023/08/30 07:11:39;;;;;;;26.77;19.05;;;13.90;99.90;;;;;;5079966;28;20178;-88
2023/08/30 07:14:08;;;;;;;29.80;20.00;;;13.90;99.90;;;;;;5078489;28;20661;-87
2023/08/30 07:16:34;;;;;;;27.77;21.83;;;14.00;99.90;;;;;;5078451;28;20197;-88
2023/08/30 07:19:16;;;;;;;26.58;20.48;;;14.10;99.90;;;;;;5077855;28;20265;-88
2023/08/30 07:21:56;;;;;;;28.15;21.08;;;14.20;99.90;;;;;;5076560;28;20174;-88
2023/08/30 07:24:27;;;;;;;23.88;17.67;;;14.30;99.90;;;;;;5077194;28;20205;-88
2023/08/30 07:26:53;;;;;;;23.20;18.77;;;14.50;99.90;;;;;;5076251;28;20284;-88
2023/08/30 07:29:19;;;;;;;24.48;19.90;;;14.70;99.90;;;;;;5076000;28;20174;-88
2023/08/30 07:31:57;;;;;;;29.83;21.80;;;14.90;99.90;;;;;;5075241;28;20228;-87
2023/08/30 07:34:33;;;;;;;33.72;24.35;;;15.00;99.90;;;;;;5076578;28;20173;-87
2023/08/30 07:37:02;;;;;;;28.52;23.75;;;14.90;99.90;;;;;;5074433;28;20201;-87
2023/08/30 07:39:31;;;;;;;37.08;26.67;;;15.00;99.90;;;;;;5075443;28;20213;-87
2023/08/30 07:41:57;;;;;;;33.17;24.20;;;15.20;99.90;;;;;;5074858;28;20178;-88
2023/08/30 07:44:23;;;;;;;34.97;25.17;;;15.30;99.90;;;;;;5074368;28;20197;-87
2023/08/30 07:46:48;;;;;;;32.13;25.17;;;15.50;99.90;;;;;;5073142;28;20194;-87
2023/08/30 07:49:14;;;;;;;29.90;23.40;;;15.50;99.90;;;;;;5072879;28;20181;-87
2023/08/30 07:51:40;;;;;;;27.80;22.92;;;15.70;99.90;;;;;;5072886;28;20331;-86
2023/08/30 07:54:06;;;;;;;25.67;21.58;;;15.80;99.90;;;;;;5073017;28;20235;-87
2023/08/30 07:56:32;;;;;;;32.28;21.63;;;16.00;99.90;;;;;;5072859;28;20221;-87
2023/08/30 07:58:59;;;;;;;29.30;22.63;;;16.10;99.90;;;;;;5056384;28;20268;-87
2023/08/30 08:01:24;;;;;;;29.83;22.23;;;16.20;99.90;;;;;;5073657;28;20205;-86
2023/08/30 08:03:50;;;;;;;29.50;22.20;;;16.40;99.90;;;;;;5073462;28;20258;-86
2023/08/30 08:06:16;;;;;;;28.10;21.67;;;16.50;99.90;;;;;;5073092;28;20197;-86
2023/08/30 08:08:44;;;;;;;29.45;21.75;;;16.50;99.90;;;;;;5072113;28;20174;-86
2023/08/30 08:11:10;;;;;;;25.20;18.60;;;16.60;99.90;;;;;;5072599;28;20698;-86
2023/08/30 08:13:38;;;;;;;26.27;18.60;;;16.60;99.90;;;;;;5072787;28;20217;-87
2023/08/30 08:16:27;;;;;;;20.83;17.02;;;16.80;99.90;;;;;;5072410;28;20741;-87
2023/08/30 08:19:00;;;;;;;24.45;18.60;;;16.80;99.90;;;;;;5073454;28;20225;-87
2023/08/30 08:21:29;;;;;;;21.40;16.05;;;17.00;99.90;;;;;;5074154;28;20245;-87
2023/08/30 08:24:03;;;;;;;19.77;16.27;;;17.10;99.90;;;;;;5073268;28;20289;-87
2023/08/30 08:26:32;;;;;;;15.25;12.27;;;17.40;99.90;;;;;;5056296;28;20574;-87
2023/08/30 08:28:59;;;;;;;14.50;9.43;;;17.50;99.90;;;;;;5072418;28;20654;-87
2023/08/30 08:31:41;;;;;;;13.25;8.45;;;17.80;99.90;;;;;;5056155;28;20186;-87
2023/08/30 08:34:14;;;;;;;12.32;9.07;;;18.10;99.90;;;;;;5073698;28;20166;-87
2023/08/30 08:36:45;;;;;;;11.50;9.13;;;18.30;1.00;;;;;;5072363;28;20327;-87
2023/08/30 08:39:11;;;;;;;11.30;7.72;;;18.40;1.00;;;;;;5072489;28;20208;-87
2023/08/30 08:41:39;;;;;;;13.07;6.90;;;18.50;11.20;;;;;;5072230;28;20174;-88
2023/08/30 08:44:11;;;;;;;9.50;6.75;;;18.80;1.00;;;;;;5073826;28;20197;-88
2023/08/30 08:46:40;;;;;;;9.48;6.53;;;18.80;1.00;;;;;;5071749;28;20556;-89
2023/08/30 08:49:31;;;;;;;13.15;6.70;;;19.00;1.00;;;;;;5073058;28;20188;-89
2023/08/30 08:51:57;;;;;;;9.35;6.47;;;19.30;1.00;;;;;;5069430;28;20197;-88
2023/08/30 08:55:05;;;;;;;8.77;6.93;;;19.30;1.00;;;;;;5072173;28;20177;-89
2023/08/30 08:57:53;;;;;;;9.32;7.10;;;19.20;49.50;;;;;;5051519;28;20182;-87
2023/08/30 09:01:13;;;;;;;9.70;7.30;;;19.10;99.90;;;;;;5034894;28;20301;-88
2023/08/30 09:03:39;;;;;;;14.00;6.82;;;19.20;99.90;;;;;;5034469;28;20301;-87
2023/08/30 09:06:05;;;;;;;9.52;6.65;;;19.40;1.00;;;;;;5037640;28;20194;-87
2023/08/30 09:08:31;;;;;;;9.75;6.07;;;19.50;99.90;;;;;;5072307;28;20181;-87
2023/08/30 09:10:57;;;;;;;10.38;5.88;;;19.50;99.90;;;;;;5073250;28;20256;-87
2023/08/30 09:13:31;;;;;;;8.98;5.90;;;19.50;99.90;;;;;;5072488;28;20269;-87
2023/08/30 09:15:59;;;;;;;11.18;6.20;;;19.50;99.90;;;;;;5072921;28;20197;-87
2023/08/30 09:18:27;;;;;;;11.15;6.25;;;19.60;1.00;;;;;;5072225;28;20269;-87
2023/08/30 09:21:09;;;;;;;7.50;5.15;;;19.50;90.20;;;;;;5074952;28;20174;-87
2023/08/30 09:23:38;;;;;;;6.22;4.80;;;19.50;99.90;;;;;;5075498;28;20197;-87
2023/08/30 09:26:04;;;;;;;8.15;5.20;;;19.20;99.90;;;;;;5077152;28;20194;-87
2023/08/30 09:29:23;;;;;;;;;;;;;;;;;;;;;
2023/08/30 09:32:05;;;;;;;7.35;4.70;;;18.70;1.00;;;;;;5074846;28;20725;-87
2023/08/30 09:34:33;;;;;;;7.32;5.28;;;18.50;99.90;;;;;;5076656;28;20199;-87
2023/08/30 09:37:01;;;;;;;9.15;5.40;;;18.30;1.00;;;;;;5076010;28;20289;-88
2023/08/30 09:39:33;;;;;;;7.75;4.75;;;18.20;99.90;;;;;;5076048;28;20251;-87
2023/08/30 09:42:00;;;;;;;6.22;4.50;;;18.10;99.90;;;;;;5076083;28;20265;-87
2023/08/30 09:44:36;;;;;;;6.32;4.57;;;18.10;99.90;;;;;;5078930;28;20229;-87
2023/08/30 09:47:03;;;;;;;6.20;4.57;;;18.10;99.90;;;;;;5076610;28;20193;-86
2023/08/30 09:49:42;;;;;;;6.40;5.10;;;18.10;1.00;;;;;;5076007;28;20215;-86
2023/08/30 09:52:09;;;;;;;8.80;4.60;;;18.00;1.00;;;;;;5076153;28;20197;-86
2023/08/30 09:54:38;;;;;;;7.03;4.72;;;18.20;1.00;;;;;;5075974;28;20235;-86
2023/08/30 09:57:10;;;;;;;6.30;4.85;;;18.40;99.90;;;;;;5075811;28;20285;-86
2023/08/30 09:59:37;;;;;;;6.13;4.38;;;18.50;1.00;;;;;;5075939;28;20285;-86
2023/08/30 10:02:05;;;;;;;6.35;4.28;;;18.60;99.90;;;;;;5077724;28;20177;-87
2023/08/30 10:04:32;;;;;;;8.75;4.78;;;18.70;1.00;;;;;;5078710;28;20229;-85
2023/08/30 10:06:59;;;;;;;7.85;4.60;;;18.80;99.90;;;;;;5077152;28;20198;-85
2023/08/30 10:09:25;;;;;;;9.32;5.22;;;18.70;1.00;;;;;;5077905;28;20174;-86
2023/08/30 10:12:43;;;;;;;8.57;5.05;;;18.70;1.00;;;;;;5077811;28;20193;-90
2023/08/30 10:15:36;;;;;;;6.13;4.22;;;18.70;99.90;;;;;;5070239;28;20247;-86
2023/08/30 10:18:48;;;;;;;6.38;5.32;;;18.70;99.90;;;;;;5078283;28;20158;-87
2023/08/30 10:21:26;;;;;;;7.53;5.47;;;18.40;99.90;;;;;;5068145;28;20189;-85
2023/08/30 10:24:32;;;;;;;7.75;5.10;;;18.30;99.90;;;;;;5078453;28;20197;-85
2023/08/30 10:27:10;;;;;;;6.70;5.13;;;18.30;1.00;;;;;;5076748;28;20237;-86
2023/08/30 10:29:51;;;;;;;6.85;5.45;;;18.30;1.00;;;;;;5076940;28;20162;-86
2023/08/30 10:33:17;;;;;;;9.10;6.38;;;18.20;1.00;;;;;;5077113;28;20244;-85
2023/08/30 10:36:44;;;;;;;7.15;5.43;;;18.10;1.00;;;;;;5074600;28;20198;-85
2023/08/30 10:43:11;;;;;;;6.18;5.03;;;18.40;1.00;;;;;;5059020;28;20192;-86
2023/08/30 10:45:54;;;;;;;7.43;4.95;;;18.50;1.00;;;;;;5073896;28;20209;-86
2023/08/30 10:48:57;;;;;;;6.25;4.90;;;18.40;1.00;;;;;;5059954;28;20275;-87
2023/08/30 10:51:37;;;;;;;7.63;4.63;;;18.30;1.00;;;;;;5074762;28;20174;-85
2023/08/30 10:54:11;;;;;;;9.23;5.03;;;18.20;1.00;;;;;;5075391;28;20231;-85
2023/08/30 10:56:51;;;;;;;7.65;5.22;;;18.00;1.00;;;;;;5075627;28;20241;-84
2023/08/30 10:59:21;;;;;;;8.90;4.45;;;17.80;1.00;;;;;;5074686;28;20174;-84
2023/08/30 11:01:49;;;;;;;9.20;5.28;;;17.70;1.00;;;;;;5074141;28;20184;-84
2023/08/30 11:04:18;;;;;;;11.57;5.45;;;17.60;1.00;;;;;;5075324;28;20202;-84
2023/08/30 11:06:45;;;;;;;11.93;5.70;;;17.50;1.00;;;;;;5074245;28;20588;-84
2023/08/30 11:09:18;;;;;;;6.20;5.25;;;17.40;1.00;;;;;;5075390;28;20316;-84
2023/08/30 11:11:49;;;;;;;8.13;5.28;;;17.40;1.00;;;;;;5074183;28;20185;-84
2023/08/30 11:14:15;;;;;;;8.93;5.25;;;17.40;99.90;;;;;;5074512;28;20200;-84
2023/08/30 11:16:41;;;;;;;6.63;5.18;;;17.50;89.20;;;;;;5075692;28;20190;-84
2023/08/30 11:19:08;;;;;;;8.35;6.60;;;17.50;25.40;;;;;;5074334;28;20186;-84
2023/08/30 11:21:39;;;;;;;7.63;5.70;;;17.60;99.90;;;;;;5074423;28;20181;-84
2023/08/30 11:24:06;;;;;;;9.02;6.90;;;17.50;99.90;;;;;;5075555;28;20638;-84
2023/08/30 11:26:33;;;;;;;10.57;7.18;;;17.40;99.90;;;;;;5073436;28;20738;-84
2023/08/30 11:29:04;;;;;;;11.20;8.27;;;17.10;99.90;;;;;;5073594;28;20186;-84
2023/08/30 11:31:30;;;;;;;11.75;8.65;;;16.90;99.90;;;;;;5073719;28;20210;-84
2023/08/30 11:33:58;;;;;;;12.07;7.60;;;16.70;99.90;;;;;;5073605;28;20180;-84
2023/08/30 11:36:28;;;;;;;9.80;8.80;;;16.60;99.90;;;;;;5073420;28;20569;-84
2023/08/30 11:38:54;;;;;;;13.00;9.18;;;16.50;99.90;;;;;;5073529;28;20174;-84
2023/08/30 11:41:21;;;;;;;11.98;9.80;;;16.50;99.90;;;;;;5075785;28;20169;-84
2023/08/30 11:43:50;;;;;;;14.25;9.90;;;16.40;99.90;;;;;;5073251;28;20275;-84
2023/08/30 11:46:20;;;;;;;11.15;9.55;;;16.40;99.90;;;;;;5073123;28;20190;-84
2023/08/30 11:48:48;;;;;;;15.25;10.13;;;16.50;99.90;;;;;;5074474;28;20178;-84
2023/08/30 11:51:14;;;;;;;10.32;9.23;;;16.40;99.90;;;;;;5074310;28;20261;-84
2023/08/30 11:53:41;;;;;;;10.60;8.93;;;16.40;99.90;;;;;;5073244;28;20197;-84
2023/08/30 11:56:07;;;;;;;11.10;9.05;;;16.30;99.90;;;;;;5072738;28;20251;-84
2023/08/30 11:58:36;;;;;;;10.85;8.85;;;16.30;99.90;;;;;;5073902;28;20170;-84
2023/08/30 12:01:04;;;;;;;10.65;8.40;;;16.30;99.90;;;;;;5072845;28;20614;-84
2023/08/30 12:03:31;;;;;;;10.18;8.23;;;16.20;99.90;;;;;;5074496;28;20185;-85
2023/08/30 12:05:58;;;;;;;10.80;7.65;;;16.20;99.90;;;;;;5073463;28;20636;-85
2023/08/30 12:08:30;;;;;;;9.95;7.45;;;16.20;99.90;;;;;;5072850;28;20178;-85
2023/08/30 12:10:57;;;;;;;13.82;8.02;;;16.20;99.90;;;;;;5072910;28;20551;-84
2023/08/30 12:13:28;;;;;;;10.05;7.38;;;16.10;99.90;;;;;;5075060;28;20205;-84
2023/08/30 12:15:55;;;;;;;10.70;8.63;;;16.10;99.90;;;;;;5072575;28;20208;-84
2023/08/30 12:18:27;;;;;;;12.40;8.50;;;16.10;99.90;;;;;;5072670;28;20543;-84
2023/08/30 12:20:53;;;;;;;13.48;9.23;;;16.20;99.90;;;;;;5072859;28;20542;-84
2023/08/30 12:23:23;;;;;;;12.25;9.07;;;16.00;99.90;;;;;;5073910;28;20253;-84
2023/08/30 12:26:09;;;;;;;10.00;7.97;;;15.90;99.90;;;;;;5072599;28;20358;-84
2023/08/30 12:28:36;;;;;;;13.90;9.65;;;15.90;99.90;;;;;;5073926;28;20164;-84
2023/08/30 12:31:05;;;;;;;12.57;10.02;;;15.90;99.90;;;;;;5072691;28;20174;-84
2023/08/30 12:33:31;;;;;;;12.30;10.43;;;15.70;99.90;;;;;;5073757;28;20177;-84
2023/08/30 12:35:57;;;;;;;15.00;10.48;;;15.60;99.90;;;;;;5073818;28;20562;-84
2023/08/30 12:38:24;;;;;;;19.13;11.70;;;15.60;99.90;;;;;;5072879;28;20173;-84
2023/08/30 12:40:52;;;;;;;13.52;11.68;;;15.50;99.90;;;;;;5074072;28;20638;-84
2023/08/30 12:43:19;;;;;;;15.05;12.55;;;15.40;99.90;;;;;;5073046;28;20185;-84
2023/08/30 12:45:46;;;;;;;16.65;12.45;;;15.20;99.90;;;;;;5072556;28;20209;-84
2023/08/30 12:48:16;;;;;;;21.50;14.32;;;15.00;99.90;;;;;;5072971;28;20177;-84
2023/08/30 12:50:45;;;;;;;16.67;13.27;;;14.90;99.90;;;;;;5073502;28;20166;-84
2023/08/30 12:53:11;;;;;;;17.05;13.57;;;14.90;99.90;;;;;;5072535;28;20229;-84
2023/08/30 12:55:40;;;;;;;19.27;14.23;;;14.80;99.90;;;;;;5074729;28;20198;-84